Time;durP1;ratioP1;P1;durP2;ratioP2;P2;SDS_P1;SDS_P2;PMS_P1;PMS_P2;Temp;Humidity;BMP_temperature;BMP_pressure;BME280_temperature;BME280_humidity;BME280_pressure;Samples;Min_cycle;Max_cycle;Signal;HPM_P1;HPM_P2
2023/10/03 00:00:38;;;;;;;9.20;5.63;;;21.20;90.00;;;;;;5093582;28;20493;-29
2023/10/03 00:03:08;;;;;;;9.27;5.88;;;20.00;86.30;;;;;;5094225;28;20063;-29
2023/10/03 00:05:36;;;;;;;7.35;5.03;;;;;;;;;;5093952;28;20047;-29
2023/10/03 00:08:04;;;;;;;7.25;5.03;;;20.20;90.10;;;;;;5094423;28;20123;-30
2023/10/03 00:10:31;;;;;;;8.80;5.57;;;20.10;72.40;;;;;;5094265;28;20044;-28
2023/10/03 00:12:59;;;;;;;7.80;5.35;;;20.00;89.90;;;;;;5094078;28;20048;-29
2023/10/03 00:15:27;;;;;;;7.55;5.20;;;19.00;89.00;;;;;;5094238;28;20136;-28
2023/10/03 00:17:54;;;;;;;8.50;5.68;;;21.20;90.00;;;;;;5094114;28;20063;-28
2023/10/03 00:20:22;;;;;;;9.18;5.75;;;;;;;;;;5093934;28;20131;-29
2023/10/03 00:22:49;;;;;;;7.32;5.32;;;20.60;86.00;;;;;;5093896;28;20054;-28
2023/10/03 00:25:18;;;;;;;7.65;5.30;;;20.40;87.60;;;;;;5094105;28;20071;-29
2023/10/03 00:27:46;;;;;;;8.25;5.38;;;20.20;78.30;;;;;;5093759;28;20455;-29
2023/10/03 00:30:15;;;;;;;9.20;5.50;;;20.10;89.60;;;;;;5093948;28;20051;-27
2023/10/03 00:32:42;;;;;;;7.47;5.30;;;20.10;72.20;;;;;;5093512;28;20083;-29
2023/10/03 00:35:10;;;;;;;7.63;5.40;;;20.00;89.40;;;;;;5093811;28;20136;-30
2023/10/03 00:37:38;;;;;;;8.05;5.40;;;20.20;90.10;;;;;;5093066;28;20074;-29
2023/10/03 00:40:16;;;;;;;8.70;5.75;;;20.10;72.20;;;;;;5093791;28;20424;-29
2023/10/03 00:42:44;;;;;;;10.07;5.93;;;20.10;90.10;;;;;;5093563;28;20047;-29
2023/10/03 00:45:12;;;;;;;9.05;6.22;;;19.80;90.00;;;;;;5093470;28;20087;-29
2023/10/03 00:47:41;;;;;;;9.20;5.57;;;19.90;88.70;;;;;;5093329;28;20439;-28
2023/10/03 00:50:09;;;;;;;9.57;5.38;;;21.20;77.10;;;;;;5093685;28;20048;-28
2023/10/03 00:52:37;;;;;;;9.52;5.85;;;;;;;;;;5093163;28;20048;-30
2023/10/03 00:55:04;;;;;;;7.93;5.63;;;19.90;89.30;;;;;;5092968;28;20059;-29
2023/10/03 00:57:32;;;;;;;8.25;5.25;;;20.20;89.50;;;;;;5093376;28;20446;-29
2023/10/03 00:59:59;;;;;;;7.85;5.15;;;20.60;90.10;;;;;;5093187;28;20059;-29
2023/10/03 01:02:27;;;;;;;7.55;5.53;;;20.30;89.70;;;;;;5093285;28;20075;-29
2023/10/03 01:04:55;;;;;;;7.78;5.38;;;19.80;89.90;;;;;;5093022;28;20105;-29
2023/10/03 01:07:23;;;;;;;8.50;5.63;;;;;;;;;;5093299;28;20054;-29
2023/10/03 01:09:50;;;;;;;6.82;5.00;;;21.10;89.90;;;;;;5092725;28;20047;-28
2023/10/03 01:12:18;;;;;;;8.23;5.60;;;;;;;;;;5092942;28;20047;-29
2023/10/03 01:14:46;;;;;;;10.93;5.93;;;20.50;81.10;;;;;;5093194;28;20418;-28
2023/10/03 01:17:15;;;;;;;7.90;5.22;;;;;;;;;;5092944;28;20056;-30
2023/10/03 01:19:43;;;;;;;8.52;5.70;;;20.40;89.40;;;;;;5092980;28;20382;-29
2023/10/03 01:22:13;;;;;;;7.60;5.22;;;19.90;89.20;;;;;;5092899;28;20052;-29
2023/10/03 01:24:41;;;;;;;7.90;5.50;;;20.40;90.00;;;;;;5092633;28;20044;-30
2023/10/03 01:27:08;;;;;;;7.30;5.05;;;;;;;;;;5092515;28;20058;-30
2023/10/03 01:29:36;;;;;;;8.90;5.43;;;20.30;89.80;;;;;;5092804;28;20044;-29
2023/10/03 01:32:03;;;;;;;9.75;5.90;;;20.40;89.70;;;;;;5092807;28;20166;-30
2023/10/03 01:34:31;;;;;;;7.85;5.40;;;;;;;;;;5092528;28;20048;-30
2023/10/03 01:36:58;;;;;;;8.18;5.45;;;;;;;;;;5092233;28;20451;-29
2023/10/03 01:39:24;;;;;;;8.10;5.43;;;19.80;89.00;;;;;;5092139;28;20228;-29
2023/10/03 01:41:52;;;;;;;8.00;5.38;;;20.10;72.00;;;;;;5092470;28;20150;-30
2023/10/03 01:44:19;;;;;;;9.02;5.65;;;20.10;89.60;;;;;;5092385;28;20131;-29
2023/10/03 01:46:47;;;;;;;8.68;5.85;;;;;;;;;;5092392;28;20489;-28
2023/10/03 01:49:16;;;;;;;8.10;5.47;;;19.50;79.70;;;;;;5092256;28;20044;-28
2023/10/03 01:51:43;;;;;;;8.90;5.60;;;19.50;89.70;;;;;;5092114;28;20512;-29
2023/10/03 01:54:10;;;;;;;7.60;5.35;;;;;;;;;;5092101;28;20062;-29
2023/10/03 01:56:37;;;;;;;8.93;5.80;;;19.50;89.00;;;;;;5092272;28;20493;-30
2023/10/03 01:59:06;;;;;;;7.93;5.55;;;20.00;71.90;;;;;;5092293;28;20083;-29
2023/10/03 02:01:35;;;;;;;8.60;5.50;;;19.70;87.50;;;;;;5092271;28;20059;-28
2023/10/03 02:04:02;;;;;;;9.55;5.97;;;20.00;89.50;;;;;;5091585;28;20043;-29
2023/10/03 02:06:29;;;;;;;7.65;5.40;;;19.90;89.30;;;;;;5091940;28;20059;-30
2023/10/03 02:08:56;;;;;;;8.52;5.45;;;20.00;89.10;;;;;;5092151;28;20048;-29
2023/10/03 02:11:26;;;;;;;8.98;4.93;;;20.00;89.10;;;;;;5092080;28;20485;-29
2023/10/03 02:13:54;;;;;;;7.65;5.32;;;19.10;89.30;;;;;;5091978;28;20048;-30
2023/10/03 02:16:22;;;;;;;8.75;5.80;;;19.50;78.20;;;;;;5091676;28;20054;-28
2023/10/03 02:18:49;;;;;;;7.90;5.40;;;20.30;87.60;;;;;;5091615;28;20094;-29
2023/10/03 02:21:17;;;;;;;7.30;5.22;;;19.60;89.10;;;;;;5092233;28;20043;-30
2023/10/03 02:23:47;;;;;;;7.85;5.30;;;;;;;;;;5091387;28;20147;-28
2023/10/03 02:26:16;;;;;;;7.20;4.55;;;19.80;88.40;;;;;;5091988;28;20500;-29
2023/10/03 02:28:43;;;;;;;7.25;5.05;;;20.40;89.20;;;;;;5091586;28;20048;-28
2023/10/03 02:31:10;;;;;;;7.68;5.47;;;20.30;89.20;;;;;;5091739;28;20080;-29
2023/10/03 02:33:39;;;;;;;8.52;5.43;;;19.20;88.50;;;;;;5091497;28;20051;-29
2023/10/03 02:36:07;;;;;;;9.20;6.00;;;19.10;83.40;;;;;;5091488;28;20135;-28
2023/10/03 02:38:36;;;;;;;10.32;6.32;;;19.40;89.00;;;;;;5091677;28;20071;-28
2023/10/03 02:41:06;;;;;;;8.13;5.63;;;20.30;89.40;;;;;;5090388;28;20593;-29
2023/10/03 02:43:35;;;;;;;8.43;5.38;;;20.20;89.70;;;;;;5091524;28;20044;-29
2023/10/03 02:46:04;;;;;;;8.88;5.57;;;;;;;;;;5091376;28;20059;-31
2023/10/03 02:48:31;;;;;;;8.82;5.93;;;19.20;89.20;;;;;;5091673;28;20110;-29
2023/10/03 02:51:01;;;;;;;9.40;5.68;;;20.00;71.80;;;;;;5091497;28;20059;-30
2023/10/03 02:53:28;;;;;;;8.70;5.68;;;;;;;;;;5091630;28;20054;-29
2023/10/03 02:55:55;;;;;;;8.65;5.53;;;20.70;90.10;;;;;;5091548;28;20044;-28
2023/10/03 02:58:22;;;;;;;7.97;5.32;;;20.00;77.20;;;;;;5091474;28;20052;-29
2023/10/03 03:00:49;;;;;;;9.02;5.43;;;20.00;71.80;;;;;;5091203;28;20095;-29
2023/10/03 03:03:16;;;;;;;8.32;5.25;;;;;;;;;;5091586;28;20139;-29
2023/10/03 03:05:44;;;;;;;10.48;6.20;;;20.40;89.90;;;;;;5091380;28;20583;-28
2023/10/03 03:08:22;;;;;;;8.77;5.38;;;19.90;87.10;;;;;;5091528;28;20068;-28
2023/10/03 03:10:54;;;;;;;8.07;5.50;;;20.00;75.20;;;;;;5091458;28;20400;-28
2023/10/03 03:13:22;;;;;;;7.95;5.53;;;19.90;87.10;;;;;;5091319;28;20051;-28
2023/10/03 03:15:59;;;;;;;9.40;5.68;;;20.20;77.60;;;;;;5091379;28;20048;-28
2023/10/03 03:18:26;;;;;;;8.88;5.53;;;20.40;89.20;;;;;;5091432;28;20052;-28
2023/10/03 03:20:57;;;;;;;10.30;5.72;;;19.80;81.10;;;;;;5091310;28;20074;-28
2023/10/03 03:23:30;;;;;;;9.45;5.90;;;19.30;89.40;;;;;;5091212;28;20147;-28
2023/10/03 03:26:09;;;;;;;9.82;5.93;;;20.00;75.30;;;;;;5091518;28;20088;-28
2023/10/03 03:28:38;;;;;;;12.07;6.50;;;19.70;88.80;;;;;;5091532;28;20083;-28
2023/10/03 03:31:14;;;;;;;9.45;6.03;;;19.70;81.10;;;;;;5091171;28;20079;-28
2023/10/03 03:33:40;;;;;;;10.93;6.57;;;19.50;89.00;;;;;;5091135;28;20048;-28
2023/10/03 03:36:08;;;;;;;9.80;6.38;;;;;;;;;;5091499;28;20143;-29
2023/10/03 03:38:36;;;;;;;10.35;6.03;;;20.00;71.80;;;;;;5095126;28;20062;-29
2023/10/03 03:41:04;;;;;;;10.48;6.50;;;19.70;74.70;;;;;;5094677;28;20059;-29
2023/10/03 03:43:31;;;;;;;8.75;5.70;;;;;;;;;;5094725;28;20135;-31
2023/10/03 03:45:58;;;;;;;11.82;6.82;;;20.40;74.00;;;;;;5094702;28;20086;-28
2023/10/03 03:48:25;;;;;;;12.40;6.95;;;;;;;;;;5094837;28;20127;-29
2023/10/03 03:50:52;;;;;;;11.02;6.65;;;20.20;89.50;;;;;;5094644;28;20064;-30
2023/10/03 03:53:21;;;;;;;11.10;6.47;;;19.80;89.80;;;;;;5094794;28;20140;-36
2023/10/03 03:55:49;;;;;;;10.93;5.88;;;20.00;71.80;;;;;;5089131;28;20528;-32
2023/10/03 03:58:18;;;;;;;11.05;6.90;;;19.80;77.90;;;;;;5085144;28;20047;-35
2023/10/03 04:00:47;;;;;;;11.57;6.75;;;20.00;71.70;;;;;;5084147;28;20036;-32
2023/10/03 04:03:15;;;;;;;11.10;5.85;;;;;;;;;;5082745;28;20143;-36
2023/10/03 04:05:42;;;;;;;11.60;6.70;;;;;;;;;;5084994;28;20122;-34
2023/10/03 04:08:09;;;;;;;10.20;6.10;;;20.10;89.90;;;;;;5088650;28;20052;-35
2023/10/03 04:10:37;;;;;;;14.05;7.50;;;;;;;;;;5087169;28;20040;-33
2023/10/03 04:13:09;;;;;;;14.50;7.57;;;19.20;89.30;;;;;;5091332;28;20492;-36
2023/10/03 04:15:37;;;;;;;13.32;7.07;;;20.20;77.40;;;;;;5092019;28;20093;-33
2023/10/03 04:18:05;;;;;;;12.57;6.90;;;19.90;71.70;;;;;;5092824;28;20044;-33
2023/10/03 04:20:35;;;;;;;11.70;6.55;;;;;;;;;;5093904;28;20048;-31
2023/10/03 04:23:03;;;;;;;12.38;7.07;;;20.00;89.00;;;;;;5091324;28;20130;-36
2023/10/03 04:25:32;;;;;;;12.98;7.55;;;19.90;88.90;;;;;;5087382;28;20041;-38
2023/10/03 04:27:59;;;;;;;12.77;7.35;;;20.10;80.20;;;;;;5093764;28;20048;-35
2023/10/03 04:30:27;;;;;;;12.50;7.25;;;18.80;88.50;;;;;;5093590;28;20131;-34
2023/10/03 04:32:54;;;;;;;12.82;6.93;;;20.40;89.20;;;;;;5093886;28;20059;-34
2023/10/03 04:35:22;;;;;;;14.80;7.72;;;20.30;84.40;;;;;;5093857;28;20556;-34
2023/10/03 04:37:51;;;;;;;12.82;7.07;;;;;;;;;;5093354;28;20064;-34
2023/10/03 04:40:22;;;;;;;13.63;7.18;;;;;;;;;;5093599;28;20074;-34
2023/10/03 04:42:49;;;;;;;12.70;7.28;;;19.80;87.30;;;;;;5093665;28;20516;-34
2023/10/03 04:45:18;;;;;;;12.25;7.22;;;20.10;89.90;;;;;;5093840;28;20101;-36
2023/10/03 04:47:47;;;;;;;13.23;7.53;;;19.90;71.60;;;;;;5093512;28;20044;-32
2023/10/03 04:50:16;;;;;;;15.23;7.82;;;19.90;81.60;;;;;;5093639;28;20048;-33
2023/10/03 04:52:43;;;;;;;13.93;7.47;;;19.70;89.00;;;;;;5093357;28;20048;-35
2023/10/03 04:55:10;;;;;;;15.73;7.75;;;20.00;79.10;;;;;;5093285;28;20098;-35
2023/10/03 04:57:41;;;;;;;14.48;7.22;;;20.00;86.20;;;;;;5093733;28;20127;-34
2023/10/03 05:00:09;;;;;;;14.45;7.97;;;19.90;71.60;;;;;;5093650;28;20076;-33
2023/10/03 05:02:36;;;;;;;14.23;7.60;;;19.60;80.90;;;;;;5093528;28;20126;-32
2023/10/03 05:05:06;;;;;;;14.40;8.05;;;20.10;89.40;;;;;;5092812;28;20134;-33
2023/10/03 05:07:33;;;;;;;16.52;8.00;;;19.60;89.60;;;;;;5092957;28;20052;-34
2023/10/03 05:10:00;;;;;;;15.05;7.80;;;;;;;;;;5093216;28;20054;-35
2023/10/03 05:12:27;;;;;;;15.88;7.78;;;20.10;89.00;;;;;;5093377;28;20131;-34
2023/10/03 05:14:54;;;;;;;15.77;8.38;;;19.60;88.80;;;;;;5092805;28;20098;-35
2023/10/03 05:17:21;;;;;;;15.18;7.80;;;;;;;;;;5093333;28;20055;-36
2023/10/03 05:19:49;;;;;;;17.38;8.88;;;19.90;89.90;;;;;;5092807;28;20093;-37
2023/10/03 05:22:17;;;;;;;15.35;8.18;;;19.90;71.70;;;;;;5093212;28;20044;-31
2023/10/03 05:24:44;;;;;;;14.85;7.75;;;;;;;;;;5092994;28;20127;-33
2023/10/03 05:27:11;;;;;;;14.77;8.45;;;19.80;89.80;;;;;;5093007;28;20131;-35
2023/10/03 05:29:39;;;;;;;14.50;7.72;;;20.40;89.70;;;;;;5092801;28;20470;-35
2023/10/03 05:32:05;;;;;;;15.38;8.65;;;20.30;89.60;;;;;;5092804;28;20412;-34
2023/10/03 05:34:32;;;;;;;16.38;8.80;;;;;;;;;;5092094;28;20106;-32
2023/10/03 05:36:59;;;;;;;15.68;8.18;;;21.00;89.70;;;;;;5092022;28;20493;-28
2023/10/03 05:39:27;;;;;;;15.73;8.13;;;18.90;73.80;;;;;;5092956;28;20127;-28
2023/10/03 05:41:56;;;;;;;18.02;8.50;;;19.50;88.80;;;;;;5093002;28;20089;-28
2023/10/03 05:44:23;;;;;;;17.55;8.15;;;;;;;;;;5092613;28;20105;-28
2023/10/03 05:46:54;;;;;;;16.77;9.00;;;20.40;89.40;;;;;;5092366;28;20130;-28
2023/10/03 05:49:22;;;;;;;17.77;8.35;;;20.00;81.50;;;;;;5092299;28;20075;-28
2023/10/03 05:51:49;;;;;;;14.55;8.02;;;;;;;;;;5092386;28;20551;-29
2023/10/03 05:54:17;;;;;;;16.58;8.40;;;;;;;;;;5092078;28;20493;-30
2023/10/03 05:56:45;;;;;;;15.55;8.35;;;19.60;89.10;;;;;;5092332;28;20059;-29
2023/10/03 05:59:12;;;;;;;16.40;7.90;;;19.90;83.40;;;;;;5091156;28;20052;-29
2023/10/03 06:01:40;;;;;;;15.77;8.15;;;20.30;90.10;;;;;;5091824;28;20246;-29
2023/10/03 06:04:08;;;;;;;15.98;8.27;;;19.60;89.70;;;;;;5092106;28;20051;-27
2023/10/03 06:06:34;;;;;;;17.52;8.23;;;19.60;89.00;;;;;;5092359;28;20140;-28
2023/10/03 06:09:02;;;;;;;14.80;7.95;;;;;;;;;;5092381;28;20056;-29
2023/10/03 06:11:29;;;;;;;15.93;8.55;;;20.30;90.00;;;;;;5091831;28;20047;-28
2023/10/03 06:13:58;;;;;;;16.10;7.82;;;19.50;89.20;;;;;;5092100;28;20048;-28
2023/10/03 06:16:24;;;;;;;14.90;7.45;;;19.70;88.90;;;;;;5091929;28;20134;-28
2023/10/03 06:18:52;;;;;;;15.07;7.90;;;20.30;87.60;;;;;;5092220;28;20050;-28
2023/10/03 06:21:19;;;;;;;14.60;7.15;;;;;;;;;;5092378;28;20098;-28
2023/10/03 06:23:47;;;;;;;14.20;7.75;;;19.70;75.40;;;;;;5092001;28;20051;-28
2023/10/03 06:26:17;;;;;;;15.00;7.50;;;;;;;;;;5092263;28;20052;-30
2023/10/03 06:28:44;;;;;;;15.15;8.02;;;19.40;88.90;;;;;;5091401;28;20048;-30
2023/10/03 06:31:12;;;;;;;14.07;7.30;;;21.10;89.70;;;;;;5091616;28;20127;-28
2023/10/03 06:33:42;;;;;;;15.95;7.60;;;19.60;88.80;;;;;;5088906;28;20079;-28
2023/10/03 06:36:09;;;;;;;13.73;7.38;;;;;;;;;;5091470;28;20056;-29
2023/10/03 06:38:36;;;;;;;13.55;7.50;;;19.70;88.60;;;;;;5091982;28;20084;-29
2023/10/03 06:41:04;;;;;;;13.20;7.10;;;20.80;78.50;;;;;;5091895;28;20077;-29
2023/10/03 06:43:31;;;;;;;13.55;7.57;;;;;;;;;;5089842;28;20052;-30
2023/10/03 06:45:58;;;;;;;13.93;7.55;;;;;;;;;;5081194;28;20565;-36
2023/10/03 06:48:26;;;;;;;12.63;6.68;;;20.10;71.60;;;;;;5086447;28;20382;-33
2023/10/03 06:50:53;;;;;;;14.57;7.43;;;20.30;88.80;;;;;;5085342;28;20041;-34
2023/10/03 06:53:23;;;;;;;12.68;7.05;;;19.70;88.70;;;;;;5083042;28;20079;-34
2023/10/03 06:55:50;;;;;;;13.15;6.80;;;20.30;89.80;;;;;;5087413;28;20044;-31
2023/10/03 06:58:16;;;;;;;12.30;6.88;;;19.80;83.90;;;;;;5084781;28;20106;-35
2023/10/03 07:00:43;;;;;;;13.23;6.50;;;;;;;;;;5086067;28;20155;-36
2023/10/03 07:03:10;;;;;;;13.15;6.70;;;20.00;88.90;;;;;;5085208;28;20123;-36
2023/10/03 07:05:38;;;;;;;13.52;6.90;;;20.10;71.70;;;;;;5081395;28;20048;-32
2023/10/03 07:08:05;;;;;;;12.85;6.75;;;;;;;;;;5080314;28;20058;-32
2023/10/03 07:10:32;;;;;;;11.63;6.70;;;20.40;89.40;;;;;;5086551;28;20462;-35
2023/10/03 07:13:01;;;;;;;12.68;6.82;;;;;;;;;;5085032;28;20139;-36
2023/10/03 07:15:29;;;;;;;12.70;6.95;;;20.30;85.30;;;;;;5079524;28;20082;-34
2023/10/03 07:17:56;;;;;;;12.90;6.35;;;20.60;77.30;;;;;;5073218;28;20094;-32
2023/10/03 07:20:23;;;;;;;11.35;5.57;;;20.00;74.10;;;;;;5089042;28;20079;-33
2023/10/03 07:22:51;;;;;;;15.40;6.60;;;20.30;75.10;;;;;;5093308;28;20131;-31
2023/10/03 07:25:18;;;;;;;12.52;5.88;;;19.10;76.70;;;;;;5093118;28;20134;-33
2023/10/03 07:27:45;;;;;;;13.73;5.80;;;19.90;89.00;;;;;;5093600;28;20052;-32
2023/10/03 07:30:14;;;;;;;10.93;5.60;;;20.10;71.60;;;;;;5093571;28;20044;-31
2023/10/03 07:32:41;;;;;;;11.75;5.50;;;;;;;;;;5094789;28;20055;-35
2023/10/03 07:35:12;;;;;;;10.23;5.55;;;;;;;;;;5094409;28;20048;-31
2023/10/03 07:37:40;;;;;;;9.73;5.60;;;20.40;89.80;;;;;;5094639;28;20052;-34
2023/10/03 07:40:09;;;;;;;10.77;5.13;;;20.00;84.80;;;;;;5094591;28;20044;-36
2023/10/03 07:42:38;;;;;;;10.25;5.47;;;;;;;;;;5094800;28;20457;-29
2023/10/03 07:45:06;;;;;;;10.70;5.00;;;20.00;88.90;;;;;;5094425;28;20453;-31
2023/10/03 07:47:33;;;;;;;12.05;5.13;;;20.20;89.30;;;;;;5092128;28;20123;-30
2023/10/03 07:50:01;;;;;;;9.23;4.78;;;20.20;73.10;;;;;;5092520;28;20052;-30
2023/10/03 07:52:28;;;;;;;10.98;5.10;;;;;;;;;;5094264;28;20580;-31
2023/10/03 07:54:56;;;;;;;11.43;4.82;;;;;;;;;;5093995;28;20555;-32
2023/10/03 07:57:25;;;;;;;10.77;4.75;;;20.40;82.60;;;;;;5094257;28;20047;-31
2023/10/03 07:59:52;;;;;;;13.02;5.00;;;20.00;88.90;;;;;;5094329;28;20044;-31
2023/10/03 08:02:24;;;;;;;10.85;5.13;;;;;;;;;;5106052;28;20627;-30
2023/10/03 08:04:52;;;;;;;9.77;4.63;;;20.00;88.90;;;;;;5105084;28;20097;-32
2023/10/03 08:07:22;;;;;;;9.20;4.35;;;;;;;;;;5103612;28;20070;-28
2023/10/03 08:09:49;;;;;;;9.18;4.18;;;19.70;71.70;;;;;;5102174;28;20481;-28
2023/10/03 08:12:23;;;;;;;9.75;4.40;;;20.20;88.90;;;;;;5103082;28;20090;-30
2023/10/03 08:14:52;;;;;;;9.63;4.32;;;19.90;88.60;;;;;;5102955;28;20054;-32
2023/10/03 08:17:19;;;;;;;8.13;4.43;;;20.60;74.70;;;;;;5101261;28;20052;-28
2023/10/03 08:19:46;;;;;;;10.38;4.30;;;20.60;84.00;;;;;;5103455;28;20055;-30
2023/10/03 08:22:14;;;;;;;9.98;4.65;;;19.10;88.60;;;;;;5103970;28;20053;-31
2023/10/03 08:24:43;;;;;;;10.32;4.93;;;19.80;88.80;;;;;;5105231;28;20126;-25
2023/10/03 08:27:18;;;;;;;8.93;4.45;;;20.60;89.00;;;;;;5093960;28;20622;-26
2023/10/03 08:29:45;;;;;;;8.45;4.32;;;20.40;89.10;;;;;;5094480;28;20052;-25
2023/10/03 08:32:13;;;;;;;11.15;4.40;;;20.20;71.80;;;;;;5091845;28;20480;-30
2023/10/03 08:34:44;;;;;;;8.70;4.05;;;;;;;;;;5093141;28;20558;-33
2023/10/03 08:37:18;;;;;;;10.15;4.57;;;20.40;89.20;;;;;;5091367;28;20047;-26
2023/10/03 08:39:48;;;;;;;9.07;4.28;;;20.00;89.00;;;;;;5092804;28;20052;-26
2023/10/03 08:42:17;;;;;;;7.20;3.88;;;19.80;89.80;;;;;;5092483;28;20052;-26
2023/10/03 08:44:51;;;;;;;7.82;4.18;;;20.00;75.30;;;;;;5092851;28;20079;-28
2023/10/03 08:47:21;;;;;;;9.45;4.28;;;20.20;72.00;;;;;;5092253;28;20094;-28
2023/10/03 08:49:48;;;;;;;7.18;3.45;;;20.10;89.90;;;;;;5092566;28;20048;-26
2023/10/03 08:52:14;;;;;;;8.30;3.63;;;19.30;72.50;;;;;;5093743;28;20040;-29
2023/10/03 08:54:42;;;;;;;7.75;4.05;;;20.10;72.00;;;;;;5101296;28;20122;-27
2023/10/03 08:57:10;;;;;;;7.32;3.70;;;19.80;76.90;;;;;;5098969;28;20119;-28
2023/10/03 08:59:40;;;;;;;7.88;4.05;;;20.00;89.20;;;;;;5101839;28;20040;-26
2023/10/03 09:02:09;;;;;;;9.90;3.60;;;20.20;72.10;;;;;;5103780;28;20048;-27
2023/10/03 09:04:38;;;;;;;7.05;3.55;;;20.20;85.50;;;;;;5107084;28;20130;-27
2023/10/03 09:07:08;;;;;;;6.80;3.22;;;20.50;72.80;;;;;;5103332;28;20408;-29
2023/10/03 09:09:36;;;;;;;9.07;4.40;;;20.20;72.10;;;;;;5102404;28;20048;-29
2023/10/03 09:12:02;;;;;;;6.65;3.53;;;19.50;78.40;;;;;;5100563;28;20040;-26
2023/10/03 09:14:29;;;;;;;8.32;3.58;;;20.20;80.80;;;;;;5099393;28;20556;-27
2023/10/03 09:16:59;;;;;;;5.70;3.15;;;;;;;;;;5101365;28;20130;-29
2023/10/03 09:19:43;;;;;;;8.00;3.22;;;20.70;88.00;;;;;;5096376;28;20066;-27
2023/10/03 09:22:10;;;;;;;7.30;2.92;;;20.80;73.40;;;;;;5098643;28;20040;-28
2023/10/03 09:24:43;;;;;;;7.47;3.58;;;;;;;;;;5091895;28;20131;-30
2023/10/03 09:27:17;;;;;;;6.75;3.58;;;20.50;86.30;;;;;;5091871;28;20071;-28
2023/10/03 09:29:45;;;;;;;6.43;3.28;;;;;;;;;;5092000;28;20497;-27
2023/10/03 09:32:14;;;;;;;5.78;3.40;;;;;;;;;;5091665;28;20110;-27
2023/10/03 09:34:42;;;;;;;6.82;3.08;;;20.50;89.20;;;;;;5091249;28;20576;-27
2023/10/03 09:37:09;;;;;;;6.32;2.85;;;20.90;89.80;;;;;;5095004;28;20135;-27
2023/10/03 09:39:39;;;;;;;5.75;2.80;;;20.50;74.30;;;;;;5091590;28;20055;-27
2023/10/03 09:42:09;;;;;;;6.80;3.13;;;20.30;82.50;;;;;;5091496;28;20048;-27
2023/10/03 09:44:37;;;;;;;5.68;2.72;;;;;;;;;;5091379;28;20058;-28
2023/10/03 09:47:06;;;;;;;5.85;2.85;;;;;;;;;;5091455;28;20097;-27
2023/10/03 09:49:36;;;;;;;6.15;2.95;;;20.70;89.20;;;;;;5091622;28;20105;-28
2023/10/03 09:52:17;;;;;;;5.00;2.78;;;20.20;89.00;;;;;;5091380;28;20062;-27
2023/10/03 09:54:45;;;;;;;5.30;2.92;;;;;;;;;;5091068;28;20454;-29
2023/10/03 09:57:18;;;;;;;8.00;3.08;;;;;;;;;;5091142;28;20051;-26
2023/10/03 09:59:46;;;;;;;5.30;2.60;;;20.10;87.30;;;;;;5091658;28;20044;-26
2023/10/03 10:02:14;;;;;;;5.50;3.00;;;20.50;89.30;;;;;;5091556;28;20059;-27
2023/10/03 10:04:41;;;;;;;6.65;2.63;;;20.40;89.20;;;;;;5091015;28;20439;-27
2023/10/03 10:07:16;;;;;;;5.55;2.80;;;20.10;71.80;;;;;;5091340;28;20126;-27
2023/10/03 10:09:47;;;;;;;4.35;2.50;;;19.90;79.90;;;;;;5091109;28;20093;-27
2023/10/03 10:12:15;;;;;;;4.40;2.55;;;20.10;71.70;;;;;;5091385;28;20044;-27
2023/10/03 10:15:02;;;;;;;5.18;2.40;;;20.10;71.70;;;;;;5090805;28;20063;-28
2023/10/03 10:17:41;;;;;;;4.20;2.20;;;20.00;74.60;;;;;;5091351;28;20052;-28
2023/10/03 10:20:12;;;;;;;4.30;2.15;;;20.80;74.50;;;;;;5090809;28;20059;-27
2023/10/03 10:23:16;;;;;;;3.17;2.10;;;20.10;71.60;;;;;;5091217;28;20048;-27
2023/10/03 10:25:49;;;;;;;4.43;2.33;;;20.80;76.20;;;;;;5090916;28;20507;-28
2023/10/03 10:28:20;;;;;;;5.18;2.22;;;20.40;89.90;;;;;;5090851;28;20052;-26
2023/10/03 10:31:22;;;;;;;6.78;2.50;;;19.90;83.60;;;;;;5090695;28;20643;-27
2023/10/03 10:33:50;;;;;;;4.20;2.20;;;20.10;71.60;;;;;;5090803;28;20058;-28
2023/10/03 10:36:18;;;;;;;4.22;2.20;;;;;;;;;;5090299;28;20055;-27
2023/10/03 10:38:56;;;;;;;4.55;2.65;;;20.10;71.50;;;;;;5090602;28;20056;-27
2023/10/03 10:41:27;;;;;;;4.30;2.28;;;20.00;89.00;;;;;;5090960;28;20047;-27
2023/10/03 10:44:06;;;;;;;5.03;2.42;;;20.40;89.60;;;;;;5090857;28;20052;-26
2023/10/03 10:46:34;;;;;;;3.70;1.92;;;20.30;88.90;;;;;;5094291;28;20051;-27
2023/10/03 10:49:02;;;;;;;5.97;2.20;;;20.40;88.80;;;;;;5094550;28;20054;-27
2023/10/03 10:51:31;;;;;;;5.63;2.10;;;;;;;;;;5094706;28;20044;-27
2023/10/03 10:54:00;;;;;;;4.47;2.15;;;19.80;80.00;;;;;;5094941;28;20479;-27
2023/10/03 10:56:28;;;;;;;5.10;1.83;;;20.30;88.70;;;;;;5094926;28;20123;-27
2023/10/03 10:59:01;;;;;;;4.03;2.17;;;19.00;84.90;;;;;;5094817;28;20052;-27
2023/10/03 11:01:29;;;;;;;4.10;1.98;;;;;;;;;;5093840;28;20618;-29
2023/10/03 11:03:57;;;;;;;3.88;1.88;;;;;;;;;;5093885;28;20048;-31
2023/10/03 11:06:25;;;;;;;3.85;1.88;;;19.70;88.40;;;;;;5094765;28;20067;-36
2023/10/03 11:08:52;;;;;;;2.55;1.50;;;;;;;;;;5094104;28;20043;-28
2023/10/03 11:11:21;;;;;;;4.40;1.85;;;20.50;88.60;;;;;;5094540;28;20409;-33
2023/10/03 11:13:49;;;;;;;4.03;1.67;;;20.80;89.00;;;;;;5094211;28;20048;-31
2023/10/03 11:16:23;;;;;;;2.47;1.60;;;19.80;86.40;;;;;;5094275;28;20130;-35
2023/10/03 11:18:51;;;;;;;2.50;1.53;;;20.10;87.10;;;;;;5094422;28;20127;-32
2023/10/03 11:21:18;;;;;;;2.70;1.67;;;20.30;89.40;;;;;;5094078;28;20051;-32
2023/10/03 11:24:13;;;;;;;3.45;1.70;;;19.80;70.90;;;;;;5093947;28;20533;-33
2023/10/03 11:26:45;;;;;;;2.67;1.65;;;19.00;83.00;;;;;;5094556;28;20059;-31
2023/10/03 11:29:11;;;;;;;4.70;1.80;;;21.00;89.30;;;;;;5094171;28;20131;-28
2023/10/03 11:31:40;;;;;;;3.30;1.60;;;20.00;71.10;;;;;;5094186;28;20101;-30
2023/10/03 11:34:07;;;;;;;5.13;1.67;;;;;;;;;;5093979;28;20044;-30
2023/10/03 11:36:41;;;;;;;3.17;1.60;;;19.20;88.30;;;;;;5093678;28;20072;-30
2023/10/03 11:39:10;;;;;;;3.73;1.50;;;;;;;;;;5094008;28;20047;-32
2023/10/03 11:41:37;;;;;;;3.90;1.50;;;20.30;88.40;;;;;;5094177;28;20367;-32
2023/10/03 11:44:07;;;;;;;3.55;1.60;;;19.80;88.10;;;;;;5093371;28;20091;-30
2023/10/03 11:46:38;;;;;;;2.95;1.70;;;20.00;70.90;;;;;;5091221;28;20109;-32
2023/10/03 11:49:04;;;;;;;2.30;1.42;;;20.10;82.20;;;;;;5093782;28;20123;-32
2023/10/03 11:51:31;;;;;;;4.22;2.13;;;20.20;88.10;;;;;;5093755;28;20087;-32
2023/10/03 11:53:58;;;;;;;2.95;1.60;;;20.00;79.70;;;;;;5093150;28;20550;-30
2023/10/03 11:56:24;;;;;;;3.60;1.50;;;20.50;88.60;;;;;;5093239;28;20123;-30
2023/10/03 11:58:54;;;;;;;3.75;1.63;;;20.00;88.30;;;;;;5093770;28;20130;-32
2023/10/03 12:01:23;;;;;;;4.07;1.80;;;20.10;70.60;;;;;;5093348;28;20590;-30
2023/10/03 12:03:53;;;;;;;4.57;1.73;;;;;;;;;;5093348;28;20493;-28
2023/10/03 12:06:20;;;;;;;4.45;2.00;;;20.50;82.50;;;;;;5093385;28;20048;-30
2023/10/03 12:08:46;;;;;;;4.22;1.90;;;20.00;77.30;;;;;;5093651;28;20048;-28
2023/10/03 12:11:14;;;;;;;3.38;1.83;;;19.90;87.60;;;;;;5093521;28;20445;-31
2023/10/03 12:13:41;;;;;;;5.57;2.03;;;19.40;88.10;;;;;;5093216;28;20044;-32
2023/10/03 12:16:08;;;;;;;4.38;1.75;;;;;;;;;;5093341;28;20480;-32
2023/10/03 12:18:37;;;;;;;3.45;1.70;;;19.20;87.30;;;;;;5093181;28;20135;-28
2023/10/03 12:21:04;;;;;;;4.15;1.80;;;20.50;89.00;;;;;;5093129;28;20680;-31
2023/10/03 12:23:31;;;;;;;4.82;2.10;;;20.00;74.40;;;;;;5092586;28;20040;-31
2023/10/03 12:25:58;;;;;;;3.10;1.58;;;;;;;;;;5096559;28;20052;-29
2023/10/03 12:28:25;;;;;;;3.50;2.00;;;19.20;79.50;;;;;;5103328;28;20048;-32
2023/10/03 12:30:52;;;;;;;4.32;1.80;;;;;;;;;;5103600;28;20048;-29
2023/10/03 12:33:20;;;;;;;3.83;2.00;;;20.60;88.30;;;;;;5101675;28;20043;-31
2023/10/03 12:35:48;;;;;;;2.67;1.63;;;19.10;87.30;;;;;;5102872;28;20055;-31
2023/10/03 12:38:16;;;;;;;4.25;1.80;;;;;;;;;;5100365;28;20070;-31
2023/10/03 12:40:43;;;;;;;3.40;1.70;;;19.60;87.40;;;;;;5099704;28;20054;-32
2023/10/03 12:43:11;;;;;;;3.53;1.90;;;19.60;87.60;;;;;;5102382;28;20141;-32
2023/10/03 12:45:38;;;;;;;6.07;2.00;;;;;;;;;;5100384;28;20039;-31
2023/10/03 12:48:05;;;;;;;2.97;1.73;;;20.50;84.00;;;;;;5092351;28;20052;-31
2023/10/03 12:50:34;;;;;;;3.08;1.92;;;19.60;87.20;;;;;;5097923;28;20123;-32
2023/10/03 12:53:02;;;;;;;4.07;1.70;;;19.80;71.70;;;;;;5103141;28;20050;-30
2023/10/03 12:55:30;;;;;;;5.15;1.80;;;20.10;70.20;;;;;;5102772;28;20055;-33
2023/10/03 12:57:58;;;;;;;4.35;1.70;;;20.90;88.10;;;;;;5101062;28;20129;-34
2023/10/03 13:00:25;;;;;;;4.10;1.70;;;20.10;86.40;;;;;;5102418;28;20044;-32
2023/10/03 13:02:52;;;;;;;4.88;2.10;;;19.80;81.40;;;;;;5103059;28;20117;-32
2023/10/03 13:05:21;;;;;;;5.50;1.83;;;20.00;84.90;;;;;;5098366;28;20119;-34
2023/10/03 13:07:48;;;;;;;5.13;1.80;;;;;;;;;;5101635;28;20548;-34
2023/10/03 13:10:17;;;;;;;4.05;1.90;;;20.20;78.20;;;;;;5095880;28;20044;-34
2023/10/03 13:12:44;;;;;;;4.20;2.00;;;;;;;;;;5094546;28;20122;-30